Time;durP1;ratioP1;P1;durP2;ratioP2;P2;SDS_P1;SDS_P2;PMS_P1;PMS_P2;Temp;Humidity;BMP_temperature;BMP_pressure;BME280_temperature;BME280_humidity;BME280_pressure;Samples;Min_cycle;Max_cycle;Signal;HPM_P1;HPM_P2
2023/07/22 00:01:55;;;;;;;2.70;2.60;;;24.50;69.90;;;;;;5028624;28;20670;-73
2023/07/22 00:04:21;;;;;;;6.75;3.08;;;24.50;69.50;;;;;;5029295;28;20259;-73
2023/07/22 00:06:46;;;;;;;3.17;2.65;;;24.60;69.40;;;;;;5029129;28;20211;-74
2023/07/22 00:09:12;;;;;;;3.13;2.60;;;24.70;69.80;;;;;;5028807;28;20221;-74
2023/07/22 00:11:38;;;;;;;5.82;3.13;;;24.60;70.10;;;;;;5028933;28;20189;-74
2023/07/22 00:14:06;;;;;;;2.53;2.33;;;24.50;71.80;;;;;;5036140;28;20238;-74
2023/07/22 00:16:32;;;;;;;2.80;2.63;;;24.40;72.20;;;;;;5031019;28;20239;-74
2023/07/22 00:18:57;;;;;;;2.83;2.60;;;24.30;70.50;;;;;;5028809;28;20184;-74
2023/07/22 00:21:23;;;;;;;2.97;2.38;;;24.40;70.00;;;;;;5027203;28;20188;-73
2023/07/22 00:23:48;;;;;;;2.78;2.58;;;24.50;70.00;;;;;;5030442;28;20737;-73
2023/07/22 00:26:14;;;;;;;3.13;2.40;;;24.60;70.00;;;;;;5033517;28;20180;-73
2023/07/22 00:28:40;;;;;;;4.30;2.72;;;24.60;70.70;;;;;;5029867;28;20203;-73
2023/07/22 00:31:06;;;;;;;3.10;2.38;;;24.60;70.10;;;;;;5027177;28;20250;-72
2023/07/22 00:33:31;;;;;;;2.65;2.53;;;24.50;72.30;;;;;;5028722;28;20178;-73
2023/07/22 00:35:57;;;;;;;2.88;2.67;;;24.30;72.20;;;;;;5030169;28;20172;-74
2023/07/22 00:38:23;;;;;;;3.13;2.85;;;24.10;73.40;;;;;;5029652;28;20176;-73
2023/07/22 00:40:49;;;;;;;2.60;2.42;;;24.10;73.40;;;;;;5029992;28;20183;-74
2023/07/22 00:43:15;;;;;;;3.15;2.85;;;24.20;71.60;;;;;;5022426;28;20176;-73
2023/07/22 00:45:41;;;;;;;2.78;2.53;;;24.20;72.50;;;;;;5027731;28;20172;-73
2023/07/22 00:48:08;;;;;;;2.65;2.45;;;24.20;71.20;;;;;;5034397;28;20224;-73
2023/07/22 00:50:35;;;;;;;3.08;2.88;;;24.20;71.30;;;;;;5030674;28;20196;-73
2023/07/22 00:53:00;;;;;;;2.75;2.65;;;24.30;71.20;;;;;;5030655;28;20267;-73
2023/07/22 00:55:27;;;;;;;2.50;2.35;;;24.30;71.00;;;;;;5025662;28;20865;-73
2023/07/22 00:57:54;;;;;;;2.83;2.60;;;24.20;73.70;;;;;;5028002;28;20188;-74
2023/07/22 01:00:20;;;;;;;2.33;2.13;;;24.10;71.80;;;;;;5025248;28;20692;-73
2023/07/22 01:02:45;;;;;;;2.33;2.10;;;24.10;71.90;;;;;;5033786;28;20187;-73
2023/07/22 01:05:12;;;;;;;3.67;2.60;;;24.20;72.20;;;;;;5029669;28;20655;-73
2023/07/22 01:07:38;;;;;;;3.53;2.35;;;24.20;71.60;;;;;;5028714;28;20177;-73
2023/07/22 01:10:05;;;;;;;2.65;2.47;;;24.10;73.20;;;;;;5028985;28;20179;-73
2023/07/22 01:12:31;;;;;;;5.15;2.72;;;23.90;75.10;;;;;;5031845;28;20575;-73
2023/07/22 01:14:58;;;;;;;2.70;2.60;;;23.80;73.50;;;;;;5030500;28;20549;-73
2023/07/22 01:17:24;;;;;;;3.42;2.38;;;23.70;75.40;;;;;;5028467;28;20179;-73
2023/07/22 01:19:50;;;;;;;3.80;2.40;;;23.70;73.30;;;;;;5034681;28;20192;-73
2023/07/22 01:22:17;;;;;;;2.67;2.55;;;23.70;74.00;;;;;;5035230;28;20195;-74
2023/07/22 01:24:43;;;;;;;2.97;2.75;;;23.80;73.40;;;;;;5035627;28;20184;-73
2023/07/22 01:27:12;;;;;;;3.58;2.53;;;23.80;73.20;;;;;;5027203;28;20187;-73
2023/07/22 01:29:37;;;;;;;2.63;2.28;;;23.70;74.50;;;;;;5034896;28;20215;-73
2023/07/22 01:32:03;;;;;;;3.40;2.67;;;23.70;72.90;;;;;;5037167;28;20586;-74
2023/07/22 01:34:31;;;;;;;3.00;2.45;;;23.40;76.00;;;;;;5035845;28;20180;-74
2023/07/22 01:36:57;;;;;;;6.25;2.60;;;23.20;76.70;;;;;;5036423;28;20203;-74
2023/07/22 01:39:23;;;;;;;2.72;2.63;;;23.30;74.30;;;;;;5029714;28;20235;-73
2023/07/22 01:41:48;;;;;;;3.03;2.72;;;23.30;75.60;;;;;;5035048;28;20187;-73
2023/07/22 01:44:14;;;;;;;3.00;2.80;;;23.30;74.40;;;;;;5034924;28;20176;-73
2023/07/22 01:46:41;;;;;;;2.75;2.58;;;23.40;73.80;;;;;;5037037;28;20184;-73
2023/07/22 01:49:12;;;;;;;2.45;2.30;;;23.40;73.80;;;;;;5032001;28;20211;-74
2023/07/22 01:51:40;;;;;;;3.05;2.55;;;23.50;73.10;;;;;;5036262;28;20230;-74
2023/07/22 01:54:05;;;;;;;2.72;2.60;;;23.50;73.90;;;;;;5037384;28;20172;-74
2023/07/22 01:56:31;;;;;;;2.95;2.30;;;23.50;73.90;;;;;;5036733;28;20237;-73
2023/07/22 01:58:57;;;;;;;3.25;2.55;;;23.50;74.20;;;;;;5035930;28;20194;-74
2023/07/22 02:01:23;;;;;;;6.15;2.63;;;23.60;73.90;;;;;;5036041;28;20185;-73
2023/07/22 02:03:48;;;;;;;2.72;2.53;;;23.60;73.80;;;;;;5032358;28;20796;-73
2023/07/22 02:06:14;;;;;;;3.13;2.40;;;23.60;73.90;;;;;;5030809;28;20180;-73
2023/07/22 02:08:39;;;;;;;2.63;2.45;;;23.60;74.30;;;;;;5033312;28;20712;-73
2023/07/22 02:11:08;;;;;;;3.97;2.70;;;23.40;74.60;;;;;;5033170;28;20201;-73
2023/07/22 02:13:34;;;;;;;2.83;2.47;;;23.50;74.30;;;;;;5032959;28;20179;-73
2023/07/22 02:16:01;;;;;;;10.00;2.80;;;23.50;74.20;;;;;;5030087;28;20188;-73
2023/07/22 02:18:27;;;;;;;3.30;2.38;;;23.50;74.90;;;;;;5031364;28;20184;-73
2023/07/22 02:20:53;;;;;;;2.38;2.22;;;23.50;74.90;;;;;;5035849;28;20212;-73
2023/07/22 02:23:19;;;;;;;3.05;2.85;;;23.40;77.20;;;;;;5037383;28;20180;-73
2023/07/22 02:25:49;;;;;;;2.35;2.25;;;23.20;77.50;;;;;;5031306;28;20243;-75
2023/07/22 02:28:15;;;;;;;2.92;2.72;;;23.20;75.30;;;;;;5028351;28;20728;-73
2023/07/22 02:30:41;;;;;;;2.50;2.40;;;23.30;75.70;;;;;;5032816;28;20176;-74
2023/07/22 02:33:08;;;;;;;3.63;2.58;;;23.40;75.20;;;;;;5029584;28;20633;-73
2023/07/22 02:35:33;;;;;;;3.13;2.88;;;23.40;75.50;;;;;;5030457;28;20188;-73
2023/07/22 02:37:59;;;;;;;2.35;2.25;;;23.30;76.60;;;;;;5033580;28;20183;-74
2023/07/22 02:40:25;;;;;;;3.05;2.80;;;23.20;76.10;;;;;;5024128;28;20187;-73
2023/07/22 02:42:51;;;;;;;5.60;2.75;;;23.30;75.50;;;;;;5032861;28;20259;-74
2023/07/22 02:45:16;;;;;;;3.70;3.10;;;23.30;76.90;;;;;;5034881;28;20184;-73
2023/07/22 02:47:42;;;;;;;3.03;2.83;;;23.10;78.30;;;;;;5035487;28;20620;-73
2023/07/22 02:50:08;;;;;;;4.85;3.17;;;23.10;76.30;;;;;;5037831;28;20175;-73
2023/07/22 02:52:34;;;;;;;2.42;2.28;;;23.10;75.80;;;;;;5029465;28;20188;-73
2023/07/22 02:55:19;;;;;;;3.05;2.85;;;23.10;75.70;;;;;;5029052;28;20207;-73
2023/07/22 02:57:46;;;;;;;3.85;3.15;;;23.10;75.50;;;;;;5028707;28;20192;-73
2023/07/22 03:00:17;;;;;;;2.60;2.35;;;22.90;78.50;;;;;;5033781;28;20246;-73
2023/07/22 03:02:42;;;;;;;2.65;2.45;;;22.80;78.40;;;;;;5031091;28;20192;-73
2023/07/22 03:05:09;;;;;;;3.60;3.00;;;22.80;79.00;;;;;;5033494;28;20210;-73
2023/07/22 03:07:39;;;;;;;4.82;2.85;;;22.60;79.40;;;;;;5033954;28;20176;-74
2023/07/22 03:10:05;;;;;;;3.28;3.05;;;22.40;79.70;;;;;;5028603;28;20208;-73
2023/07/22 03:12:32;;;;;;;5.28;2.58;;;22.30;78.30;;;;;;5031492;28;20184;-74
2023/07/22 03:14:57;;;;;;;2.50;2.40;;;22.50;78.10;;;;;;5033593;28;20675;-74
2023/07/22 03:17:23;;;;;;;5.35;3.08;;;22.50;79.10;;;;;;5031244;28;20185;-73
2023/07/22 03:19:49;;;;;;;4.90;2.92;;;22.40;80.10;;;;;;5029737;28;20183;-74
2023/07/22 03:22:18;;;;;;;2.90;2.70;;;22.40;77.90;;;;;;5038710;28;20180;-74
2023/07/22 03:24:45;;;;;;;2.42;2.33;;;22.40;77.70;;;;;;5034805;28;20247;-73
2023/07/22 03:27:11;;;;;;;2.33;2.15;;;22.50;78.10;;;;;;5026940;28;20177;-73
2023/07/22 03:29:38;;;;;;;2.63;2.53;;;22.40;78.70;;;;;;5035056;28;20216;-73
2023/07/22 03:32:04;;;;;;;5.15;3.05;;;22.40;79.40;;;;;;5020125;28;20173;-74
2023/07/22 03:34:31;;;;;;;4.80;2.90;;;22.40;80.20;;;;;;5030393;28;20774;-73
2023/07/22 03:36:57;;;;;;;2.67;2.53;;;22.30;80.40;;;;;;5030906;28;20634;-73
2023/07/22 03:39:22;;;;;;;2.58;2.33;;;22.30;78.40;;;;;;5034852;28;20184;-73
2023/07/22 03:41:48;;;;;;;6.85;2.25;;;22.50;77.90;;;;;;5028593;28;20646;-73
2023/07/22 03:44:14;;;;;;;2.63;2.53;;;22.60;77.50;;;;;;5030991;28;20188;-73
2023/07/22 03:46:40;;;;;;;3.08;2.38;;;22.70;77.40;;;;;;5030659;28;20195;-73
2023/07/22 03:49:05;;;;;;;2.63;2.28;;;22.70;77.40;;;;;;5031774;28;20925;-72
2023/07/22 03:51:31;;;;;;;3.50;3.25;;;22.80;77.30;;;;;;5030978;28;20180;-73
2023/07/22 03:53:57;;;;;;;2.53;2.42;;;22.80;77.40;;;;;;5035668;28;20727;-74
2023/07/22 03:56:26;;;;;;;3.15;2.83;;;22.80;77.30;;;;;;5032600;28;20199;-73
2023/07/22 03:58:52;;;;;;;3.10;2.47;;;22.90;76.90;;;;;;5030354;28;20227;-73
2023/07/22 04:01:19;;;;;;;6.65;2.53;;;22.90;77.70;;;;;;5033448;28;20223;-73
2023/07/22 04:03:44;;;;;;;2.60;2.50;;;22.90;79.00;;;;;;5029476;28;20191;-73
2023/07/22 04:06:10;;;;;;;2.90;2.70;;;22.90;77.00;;;;;;5034404;28;20181;-73
2023/07/22 04:08:37;;;;;;;2.67;2.58;;;22.90;76.70;;;;;;5026777;28;20216;-74
2023/07/22 04:11:03;;;;;;;2.80;2.70;;;22.90;78.50;;;;;;5031618;28;20199;-74
2023/07/22 04:13:29;;;;;;;2.65;2.55;;;22.70;79.60;;;;;;5029268;28;20173;-73
2023/07/22 04:15:54;;;;;;;3.40;3.10;;;22.70;77.70;;;;;;5033583;28;20555;-74
2023/07/22 04:18:21;;;;;;;2.90;2.70;;;22.70;79.40;;;;;;5031977;28;20700;-74
2023/07/22 04:20:50;;;;;;;2.53;2.42;;;22.70;79.90;;;;;;5027398;28;20256;-74
2023/07/22 04:23:16;;;;;;;2.30;2.20;;;22.70;77.90;;;;;;5034812;28;20186;-74
2023/07/22 04:25:47;;;;;;;3.70;3.40;;;22.80;79.30;;;;;;5028261;28;20184;-73
2023/07/22 04:28:13;;;;;;;3.90;2.92;;;22.80;77.70;;;;;;5023349;28;20306;-73
2023/07/22 04:30:39;;;;;;;3.88;2.83;;;22.70;78.80;;;;;;5036184;28;20259;-73
2023/07/22 04:33:05;;;;;;;4.07;2.95;;;22.80;77.90;;;;;;5029642;28;20224;-74
2023/07/22 04:35:32;;;;;;;2.85;2.75;;;22.90;77.60;;;;;;5031123;28;20191;-73
2023/07/22 04:37:58;;;;;;;3.70;3.25;;;22.80;79.00;;;;;;5032426;28;20210;-73
2023/07/22 04:40:24;;;;;;;4.50;2.90;;;22.80;79.10;;;;;;5031125;28;20940;-73
2023/07/22 04:42:51;;;;;;;4.85;3.58;;;22.90;77.40;;;;;;5032143;28;20180;-73
2023/07/22 04:45:18;;;;;;;5.25;3.72;;;23.00;77.60;;;;;;5038412;28;20266;-73
2023/07/22 04:47:46;;;;;;;5.72;3.45;;;23.00;77.60;;;;;;5030242;28;20180;-73
2023/07/22 04:50:13;;;;;;;3.65;3.30;;;23.00;78.50;;;;;;5030129;28;20191;-73
2023/07/22 04:52:39;;;;;;;3.85;3.65;;;23.00;78.90;;;;;;5038680;28;20274;-73
2023/07/22 04:55:08;;;;;;;4.30;3.20;;;23.00;77.40;;;;;;5030215;28;20176;-73
2023/07/22 04:57:45;;;;;;;3.75;3.45;;;23.10;77.70;;;;;;5034289;28;20234;-73
2023/07/22 05:00:14;;;;;;;3.28;3.10;;;23.10;79.20;;;;;;5033385;28;20211;-73
2023/07/22 05:02:40;;;;;;;5.72;3.65;;;23.20;76.90;;;;;;5031292;28;20628;-73
2023/07/22 05:05:07;;;;;;;3.75;3.22;;;23.20;79.50;;;;;;5023615;28;20180;-73
2023/07/22 05:07:32;;;;;;;3.97;3.67;;;23.20;77.40;;;;;;5026877;28;20653;-74
2023/07/22 05:09:58;;;;;;;5.25;3.65;;;23.20;78.30;;;;;;5028881;28;20228;-73
2023/07/22 05:12:24;;;;;;;5.82;3.90;;;23.30;78.60;;;;;;5031732;28;20195;-73
2023/07/22 05:14:49;;;;;;;4.07;3.03;;;23.40;77.50;;;;;;5042754;28;20184;-73
2023/07/22 05:17:15;;;;;;;3.72;3.47;;;23.50;77.20;;;;;;5028340;28;20223;-72
2023/07/22 05:19:41;;;;;;;3.83;3.53;;;23.50;77.40;;;;;;5029597;28;20184;-73
2023/07/22 05:22:07;;;;;;;3.67;3.00;;;23.60;77.60;;;;;;5027634;28;20168;-72
2023/07/22 05:24:33;;;;;;;4.88;3.28;;;23.60;79.50;;;;;;5029120;28;20234;-74
2023/07/22 05:26:58;;;;;;;3.80;3.50;;;23.60;78.70;;;;;;5031448;28;20187;-73
2023/07/22 05:29:24;;;;;;;3.78;3.58;;;23.70;76.80;;;;;;5029338;28;20272;-73
2023/07/22 05:31:50;;;;;;;3.97;3.60;;;23.80;77.10;;;;;;5030206;28;20717;-73
2023/07/22 05:34:15;;;;;;;3.67;3.47;;;23.90;77.90;;;;;;5028108;28;20596;-73
2023/07/22 05:36:41;;;;;;;3.40;3.13;;;23.90;76.90;;;;;;5034865;28;20595;-73
2023/07/22 05:39:07;;;;;;;4.13;3.72;;;23.90;76.60;;;;;;5030654;28;20218;-73
2023/07/22 05:41:33;;;;;;;3.55;3.35;;;24.00;76.70;;;;;;5027369;28;20180;-73
2023/07/22 05:43:59;;;;;;;4.53;3.65;;;24.00;76.30;;;;;;5031904;28;20192;-73
2023/07/22 05:46:24;;;;;;;4.15;3.65;;;24.10;76.50;;;;;;5028205;28;20586;-73
2023/07/22 05:48:50;;;;;;;4.00;3.70;;;24.20;76.60;;;;;;5029357;28;20212;-73
2023/07/22 05:51:17;;;;;;;3.90;3.58;;;24.20;76.50;;;;;;5031960;28;20196;-73
2023/07/22 05:53:43;;;;;;;6.10;3.63;;;24.30;76.50;;;;;;5029431;28;20169;-73
2023/07/22 05:56:08;;;;;;;4.00;3.55;;;24.30;76.90;;;;;;5029271;28;20222;-74
2023/07/22 05:58:34;;;;;;;5.38;3.55;;;24.40;76.20;;;;;;5030180;28;20227;-73
2023/07/22 06:01:00;;;;;;;3.45;3.15;;;24.40;77.00;;;;;;5026889;28;20188;-73
2023/07/22 06:03:26;;;;;;;5.75;3.60;;;24.40;77.70;;;;;;5021444;28;20181;-73
2023/07/22 06:05:51;;;;;;;3.42;3.20;;;24.40;76.40;;;;;;5034061;28;20251;-73
2023/07/22 06:08:17;;;;;;;4.35;4.05;;;24.50;76.20;;;;;;5030174;28;20206;-72
2023/07/22 06:10:43;;;;;;;4.03;3.83;;;24.60;76.10;;;;;;5031372;28;20279;-73
2023/07/22 06:13:08;;;;;;;4.18;3.75;;;24.60;75.80;;;;;;5029003;28;20214;-73
2023/07/22 06:15:34;;;;;;;3.88;3.63;;;24.70;75.50;;;;;;5029904;28;20181;-73
2023/07/22 06:18:25;;;;;;;7.45;4.18;;;24.80;75.70;;;;;;5030923;28;20180;-73
2023/07/22 06:20:51;;;;;;;4.45;4.10;;;24.80;75.10;;;;;;5027253;28;20555;-74
2023/07/22 06:23:16;;;;;;;5.50;3.75;;;24.90;76.80;;;;;;5026535;28;20255;-74
2023/07/22 06:25:42;;;;;;;5.15;4.47;;;24.90;77.80;;;;;;5032194;28;20613;-74
2023/07/22 06:28:08;;;;;;;5.57;4.60;;;24.90;77.30;;;;;;5032021;28;20172;-75
2023/07/22 06:30:34;;;;;;;5.78;4.38;;;24.80;77.80;;;;;;5032343;28;20180;-75
2023/07/22 06:33:00;;;;;;;4.85;4.47;;;24.80;77.60;;;;;;5026208;28;20176;-74
2023/07/22 06:35:25;;;;;;;7.28;4.30;;;24.90;77.90;;;;;;5031946;28;20643;-74
2023/07/22 06:37:51;;;;;;;5.05;4.68;;;24.90;78.10;;;;;;5031415;28;20195;-74
2023/07/22 06:40:17;;;;;;;4.57;4.18;;;24.90;77.90;;;;;;5031374;28;20176;-74
2023/07/22 06:42:43;;;;;;;4.60;4.15;;;25.00;77.60;;;;;;5032321;28;20676;-74
2023/07/22 06:45:09;;;;;;;4.60;4.07;;;25.10;75.60;;;;;;5035646;28;20192;-74
2023/07/22 06:47:36;;;;;;;5.63;4.25;;;25.20;76.00;;;;;;5023987;28;20659;-78
2023/07/22 06:50:04;;;;;;;4.65;4.25;;;25.40;76.80;;;;;;5030466;28;20209;-77
2023/07/22 06:52:31;;;;;;;4.45;4.00;;;25.50;76.90;;;;;;5031690;28;20176;-77
2023/07/22 06:54:56;;;;;;;4.47;4.15;;;25.50;76.10;;;;;;5028164;28;20180;-77
2023/07/22 06:57:22;;;;;;;5.25;3.95;;;25.50;76.40;;;;;;5029447;28;20196;-75
2023/07/22 06:59:50;;;;;;;5.13;3.80;;;25.60;76.60;;;;;;5035889;28;20233;-73
2023/07/22 07:02:17;;;;;;;7.90;4.15;;;25.70;75.40;;;;;;5036755;28;20172;-73
2023/07/22 07:04:42;;;;;;;4.38;3.75;;;25.80;75.20;;;;;;5030648;28;20186;-74
2023/07/22 07:07:08;;;;;;;3.67;3.55;;;25.90;75.10;;;;;;5026090;28;20888;-74
2023/07/22 07:09:35;;;;;;;3.83;3.47;;;26.00;76.00;;;;;;5028399;28;20602;-74
2023/07/22 07:12:01;;;;;;;3.50;3.15;;;26.10;76.20;;;;;;5030991;28;20182;-74
2023/07/22 07:14:26;;;;;;;4.30;4.10;;;26.10;75.00;;;;;;5029987;28;20616;-74
2023/07/22 07:16:52;;;;;;;4.43;4.03;;;26.20;75.70;;;;;;5030730;28;20235;-74
2023/07/22 07:19:17;;;;;;;3.60;3.40;;;26.30;74.50;;;;;;5031183;28;20650;-74
2023/07/22 07:21:43;;;;;;;3.47;3.28;;;26.40;75.30;;;;;;5029601;28;20180;-75
2023/07/22 07:24:09;;;;;;;6.22;4.55;;;26.40;74.60;;;;;;5030683;28;20176;-74
2023/07/22 07:26:34;;;;;;;4.32;3.88;;;26.40;74.00;;;;;;5030969;28;20177;-73
2023/07/22 07:29:00;;;;;;;5.18;3.90;;;26.50;75.40;;;;;;5030782;28;20200;-73
2023/07/22 07:31:26;;;;;;;5.75;3.92;;;26.50;74.00;;;;;;5030318;28;20180;-74
2023/07/22 07:33:51;;;;;;;4.28;4.05;;;26.60;74.40;;;;;;5029409;28;20230;-74
2023/07/22 07:36:17;;;;;;;4.10;3.80;;;26.70;74.90;;;;;;5024926;28;20601;-73
2023/07/22 07:38:43;;;;;;;7.25;4.38;;;26.80;74.30;;;;;;5025798;28;20191;-74
2023/07/22 07:41:13;;;;;;;4.45;3.95;;;26.90;74.10;;;;;;5023733;28;20176;-74
2023/07/22 07:43:42;;;;;;;4.15;3.80;;;27.00;73.80;;;;;;5028795;28;20192;-73
2023/07/22 07:46:26;;;;;;;4.53;4.13;;;27.10;73.80;;;;;;5056005;28;20184;-74
2023/07/22 07:48:56;;;;;;;4.47;4.28;;;27.20;73.60;;;;;;5025717;28;20223;-74
2023/07/22 07:51:24;;;;;;;5.47;4.20;;;27.30;72.70;;;;;;5032939;28;20255;-74
2023/07/22 07:53:50;;;;;;;7.68;4.55;;;27.40;73.00;;;;;;5027892;28;20572;-74
2023/07/22 07:56:17;;;;;;;4.95;4.50;;;27.50;73.00;;;;;;5028828;28;20184;-74
2023/07/22 07:58:44;;;;;;;7.38;4.68;;;27.60;72.60;;;;;;5026935;28;20749;-74
2023/07/22 08:01:10;;;;;;;4.53;4.15;;;27.70;72.20;;;;;;5026115;28;20183;-74
2023/07/22 08:03:38;;;;;;;4.22;4.05;;;27.80;72.20;;;;;;5028084;28;20185;-74
2023/07/22 08:06:04;;;;;;;7.97;4.18;;;27.80;72.90;;;;;;5026194;28;20176;-74
2023/07/22 08:08:30;;;;;;;4.82;4.22;;;27.90;72.10;;;;;;5034643;28;20685;-74
2023/07/22 08:10:59;;;;;;;6.85;4.97;;;28.00;73.00;;;;;;5028632;28;20184;-74
2023/07/22 08:13:26;;;;;;;4.90;4.68;;;28.00;72.10;;;;;;5027125;28;20191;-73
2023/07/22 08:15:55;;;;;;;5.80;4.68;;;28.10;71.80;;;;;;5024519;28;20169;-74
2023/07/22 08:18:21;;;;;;;6.20;5.05;;;28.20;71.80;;;;;;5028111;28;20184;-75
2023/07/22 08:20:47;;;;;;;4.95;4.55;;;28.30;71.80;;;;;;5027996;28;20672;-74
2023/07/22 08:23:13;;;;;;;4.90;4.55;;;28.30;71.70;;;;;;5025087;28;20180;-74
2023/07/22 08:25:39;;;;;;;8.80;4.53;;;28.40;71.60;;;;;;5025803;28;20191;-74
2023/07/22 08:28:05;;;;;;;5.38;4.88;;;28.50;71.90;;;;;;5032855;28;20176;-73
2023/07/22 08:30:30;;;;;;;5.13;4.63;;;28.60;71.90;;;;;;5032394;28;20255;-73
2023/07/22 08:32:56;;;;;;;6.03;5.05;;;28.70;71.30;;;;;;5030516;28;20184;-73
2023/07/22 08:35:22;;;;;;;5.38;4.93;;;28.80;71.00;;;;;;5027197;28;20285;-73
2023/07/22 08:37:48;;;;;;;5.75;5.25;;;28.80;71.20;;;;;;5033143;28;20291;-73
2023/07/22 08:40:14;;;;;;;5.13;4.72;;;28.90;70.30;;;;;;5025792;28;20194;-73
2023/07/22 08:42:41;;;;;;;7.40;5.38;;;28.90;70.00;;;;;;5027587;28;20581;-75
2023/07/22 08:45:09;;;;;;;5.30;4.88;;;29.00;69.80;;;;;;5024792;28;20257;-73
2023/07/22 08:47:39;;;;;;;5.95;5.35;;;29.10;70.00;;;;;;5026672;28;20196;-74
2023/07/22 08:50:06;;;;;;;6.05;5.07;;;29.20;71.10;;;;;;5025481;28;20616;-75
2023/07/22 08:52:33;;;;;;;5.35;5.03;;;29.00;69.40;;;;;;5023625;28;20611;-75
2023/07/22 08:55:01;;;;;;;6.70;5.38;;;29.10;68.90;;;;;;5037283;28;20195;-73
2023/07/22 08:57:29;;;;;;;8.82;5.22;;;29.10;69.50;;;;;;5031216;28;20270;-73
2023/07/22 08:59:56;;;;;;;7.50;4.85;;;29.20;68.90;;;;;;5031859;28;20188;-73
2023/07/22 09:02:24;;;;;;;5.05;4.60;;;29.30;68.70;;;;;;5026383;28;20215;-73
2023/07/22 09:04:50;;;;;;;5.65;5.15;;;29.40;68.60;;;;;;5030899;28;20662;-73
2023/07/22 09:07:17;;;;;;;4.90;4.60;;;29.60;68.70;;;;;;5026273;28;20180;-72
2023/07/22 09:09:44;;;;;;;6.53;5.10;;;29.70;69.20;;;;;;5025833;28;20204;-73
2023/07/22 09:12:10;;;;;;;6.72;5.22;;;29.80;69.30;;;;;;5027465;28;20207;-73
2023/07/22 09:14:38;;;;;;;5.53;4.68;;;30.00;68.80;;;;;;5027585;28;20635;-75
2023/07/22 09:17:05;;;;;;;8.75;5.47;;;30.00;67.30;;;;;;5027780;28;20238;-72
2023/07/22 09:19:31;;;;;;;5.80;4.97;;;30.10;67.50;;;;;;5027244;28;20180;-73
2023/07/22 09:21:58;;;;;;;8.55;5.82;;;30.20;67.60;;;;;;5027561;28;20184;-73
2023/07/22 09:24:25;;;;;;;5.90;5.05;;;30.30;67.80;;;;;;5029286;28;20190;-73
2023/07/22 09:26:51;;;;;;;9.55;5.65;;;30.40;67.70;;;;;;5029683;28;20180;-73
2023/07/22 09:29:18;;;;;;;8.95;5.35;;;30.60;66.90;;;;;;5029277;28;20219;-73
2023/07/22 09:31:51;;;;;;;6.47;4.90;;;30.80;66.90;;;;;;5030950;28;20183;-73
2023/07/22 09:34:16;;;;;;;5.95;4.80;;;30.90;66.80;;;;;;5021343;28;20180;-73
2023/07/22 09:37:03;;;;;;;11.25;5.55;;;31.10;66.60;;;;;;5027541;28;20661;-73
2023/07/22 09:39:30;;;;;;;7.60;4.82;;;31.30;66.70;;;;;;5032676;28;20184;-73
2023/07/22 09:41:56;;;;;;;8.05;5.63;;;31.40;67.40;;;;;;5032205;28;20179;-73
2023/07/22 09:44:22;;;;;;;5.43;5.13;;;31.60;65.50;;;;;;5032205;28;20611;-73
2023/07/22 09:46:49;;;;;;;8.60;4.95;;;31.70;65.10;;;;;;5033303;28;20172;-73
2023/07/22 09:49:17;;;;;;;6.05;4.78;;;31.90;65.90;;;;;;5033051;28;20231;-73
2023/07/22 09:51:43;;;;;;;7.10;5.15;;;32.10;65.50;;;;;;5032746;28;20223;-73
2023/07/22 09:54:09;;;;;;;4.63;4.32;;;32.20;64.40;;;;;;5031968;28;20214;-73
2023/07/22 09:56:48;;;;;;;4.93;4.30;;;32.30;62.60;;;;;;5032311;28;20200;-73
2023/07/22 09:59:15;;;;;;;5.20;4.68;;;32.50;62.50;;;;;;5032378;28;20719;-73
2023/07/22 10:01:43;;;;;;;5.00;4.32;;;32.60;61.80;;;;;;5032780;28;20180;-73
2023/07/22 10:04:10;;;;;;;8.10;4.93;;;32.80;60.90;;;;;;5032638;28;20175;-73
2023/07/22 10:06:37;;;;;;;11.10;4.88;;;33.00;61.40;;;;;;5031291;28;20183;-73
2023/07/22 10:09:08;;;;;;;7.90;4.63;;;33.20;60.60;;;;;;5032783;28;20204;-73
2023/07/22 10:11:35;;;;;;;4.82;4.47;;;33.50;61.30;;;;;;5032795;28;20192;-73
2023/07/22 10:14:04;;;;;;;9.32;4.60;;;33.70;61.60;;;;;;5032666;28;20246;-73
2023/07/22 10:16:30;;;;;;;11.88;4.65;;;34.00;59.10;;;;;;5032955;28;20183;-73
2023/07/22 10:18:58;;;;;;;7.63;4.65;;;34.20;60.70;;;;;;5031257;28;20207;-73
2023/07/22 10:21:31;;;;;;;8.30;4.10;;;34.50;57.90;;;;;;5032476;28;20180;-73
2023/07/22 10:24:00;;;;;;;5.18;4.57;;;34.90;57.70;;;;;;5032682;28;20692;-73
2023/07/22 10:26:26;;;;;;;6.15;4.45;;;35.30;56.90;;;;;;5032424;28;20219;-74
2023/07/22 10:28:52;;;;;;;8.70;5.05;;;35.70;56.80;;;;;;5030967;28;20689;-74
2023/07/22 10:31:18;;;;;;;6.50;4.82;;;36.20;56.70;;;;;;5033636;28;20171;-74
2023/07/22 10:33:46;;;;;;;15.15;4.72;;;36.60;54.10;;;;;;5028651;28;20187;-73
2023/07/22 10:36:16;;;;;;;8.45;4.57;;;36.90;54.80;;;;;;5032272;28;20733;-73
2023/07/22 10:38:42;;;;;;;10.20;3.70;;;37.50;54.10;;;;;;5032038;28;20211;-73
2023/07/22 10:41:13;;;;;;;6.93;3.63;;;37.90;51.20;;;;;;5032101;28;20214;-74
2023/07/22 10:43:39;;;;;;;7.88;3.42;;;38.30;49.90;;;;;;5032085;28;20213;-73
2023/07/22 10:46:12;;;;;;;13.90;3.90;;;38.80;48.80;;;;;;5032175;28;20575;-73
2023/07/22 10:48:42;;;;;;;9.55;3.08;;;38.90;48.50;;;;;;5030934;28;20211;-73
2023/07/22 10:51:17;;;;;;;6.63;2.92;;;38.90;48.90;;;;;;5031374;28;20694;-73
2023/07/22 10:53:46;;;;;;;6.72;3.38;;;38.90;49.60;;;;;;5031778;28;20175;-73
2023/07/22 10:56:24;;;;;;;11.10;3.50;;;38.80;51.50;;;;;;5031727;28;20657;-73
2023/07/22 10:58:50;;;;;;;5.40;2.20;;;39.20;48.00;;;;;;5024703;28;20180;-73
2023/07/22 11:01:30;;;;;;;6.00;3.25;;;39.30;48.60;;;;;;5031304;28;20168;-73
2023/07/22 11:04:16;;;;;;;7.72;2.80;;;39.60;47.80;;;;;;5031653;28;20605;-73
2023/07/22 11:06:48;;;;;;;13.00;3.38;;;39.60;48.20;;;;;;5030409;28;20734;-73
2023/07/22 11:09:34;;;;;;;7.82;3.47;;;39.50;48.30;;;;;;5031447;28;20207;-73
2023/07/22 11:12:07;;;;;;;6.85;3.10;;;39.70;47.90;;;;;;5025626;28;20187;-73
2023/07/22 11:14:52;;;;;;;12.35;3.45;;;40.00;47.60;;;;;;5028024;28;20187;-73
2023/07/22 11:17:27;;;;;;;9.85;3.47;;;40.10;47.20;;;;;;5031378;28;20283;-73
2023/07/22 11:19:54;;;;;;;9.88;2.88;;;40.10;46.90;;;;;;5023784;28;20178;-73
2023/07/22 11:22:20;;;;;;;6.95;2.55;;;40.00;47.10;;;;;;5031009;28;20230;-73
2023/07/22 11:24:45;;;;;;;9.77;3.35;;;39.80;47.50;;;;;;5031267;28;20180;-73
2023/07/22 11:27:12;;;;;;;4.78;2.60;;;39.80;47.30;;;;;;5027002;28;20226;-74
2023/07/22 11:29:38;;;;;;;6.80;2.45;;;40.00;47.10;;;;;;5031383;28;20621;-73
2023/07/22 11:32:04;;;;;;;4.97;2.88;;;40.30;47.30;;;;;;5032675;28;20179;-73
2023/07/22 11:34:30;;;;;;;6.03;2.97;;;40.80;46.10;;;;;;5024439;28;20267;-73
2023/07/22 11:36:56;;;;;;;13.75;3.45;;;41.10;46.00;;;;;;5029696;28;20259;-74
2023/07/22 11:39:27;;;;;;;10.18;2.83;;;41.20;45.60;;;;;;5031087;28;20184;-73
2023/07/22 11:41:53;;;;;;;5.80;2.80;;;41.10;47.20;;;;;;5030092;28;20172;-73
2023/07/22 11:44:26;;;;;;;9.18;2.55;;;41.20;45.70;;;;;;5031139;28;20731;-73
2023/07/22 11:46:59;;;;;;;11.65;3.17;;;40.80;45.90;;;;;;5031071;28;20176;-73
2023/07/22 11:49:26;;;;;;;8.90;3.03;;;40.80;45.80;;;;;;5030563;28;20224;-73
2023/07/22 11:51:58;;;;;;;6.28;2.90;;;40.70;46.50;;;;;;5030822;28;20602;-73
2023/07/22 11:54:24;;;;;;;8.10;2.92;;;40.90;45.90;;;;;;5030745;28;20180;-73
2023/07/22 11:56:50;;;;;;;2.90;2.67;;;41.20;48.10;;;;;;5029440;28;20207;-73
2023/07/22 11:59:16;;;;;;;9.07;3.10;;;41.60;46.10;;;;;;5030695;28;20657;-74
2023/07/22 12:01:44;;;;;;;6.07;3.05;;;41.50;44.80;;;;;;5030571;28;20176;-74
2023/07/22 12:04:14;;;;;;;10.48;2.95;;;41.20;45.80;;;;;;5030751;28;20230;-74
2023/07/22 12:06:40;;;;;;;7.82;2.60;;;40.80;46.60;;;;;;5030734;28;20187;-74
2023/07/22 12:09:09;;;;;;;9.75;2.75;;;40.50;46.30;;;;;;5028173;28;20215;-74
2023/07/22 12:11:35;;;;;;;6.68;2.63;;;40.50;46.60;;;;;;5027455;28;20234;-73
2023/07/22 12:14:10;;;;;;;6.72;3.10;;;40.60;46.90;;;;;;5030530;28;20172;-73
2023/07/22 12:16:38;;;;;;;7.70;2.38;;;40.40;46.90;;;;;;5030646;28;20172;-74
2023/07/22 12:19:05;;;;;;;6.55;2.75;;;40.50;46.60;;;;;;5030450;28;20599;-74
2023/07/22 12:21:31;;;;;;;9.40;3.08;;;40.70;47.50;;;;;;5025532;28;20676;-73
2023/07/22 12:23:57;;;;;;;7.22;2.78;;;40.90;46.70;;;;;;5030436;28;20215;-74
2023/07/22 12:26:23;;;;;;;12.57;2.83;;;41.20;47.60;;;;;;5030273;28;20195;-74
2023/07/22 12:28:49;;;;;;;4.63;3.20;;;40.90;46.40;;;;;;5030277;28;20219;-74
2023/07/22 12:31:14;;;;;;;9.25;2.85;;;40.80;48.10;;;;;;5030253;28;20176;-74
2023/07/22 12:33:40;;;;;;;5.88;2.38;;;41.00;47.00;;;;;;5029935;28;20569;-74
2023/07/22 12:36:06;;;;;;;6.88;2.67;;;41.10;47.20;;;;;;5030023;28;20642;-73
2023/07/22 12:38:32;;;;;;;8.70;2.83;;;40.40;46.40;;;;;;5029924;28;20676;-74
2023/07/22 12:40:58;;;;;;;10.32;2.78;;;40.00;47.30;;;;;;5027388;28;20190;-73
2023/07/22 12:43:23;;;;;;;5.93;2.80;;;40.20;47.20;;;;;;5029727;28;20562;-74
2023/07/22 12:45:50;;;;;;;10.45;3.17;;;40.70;48.90;;;;;;5030158;28;20201;-74